Time;durP1;ratioP1;P1;durP2;ratioP2;P2;SDS_P1;SDS_P2;PMS_P1;PMS_P2;Temp;Humidity;BMP_temperature;BMP_pressure;BME280_temperature;BME280_humidity;BME280_pressure;Samples;Min_cycle;Max_cycle;Signal;HPM_P1;HPM_P2
2024/04/14 00:01:20;;;;;;;6.90;2.25;;;;;;;14.15;100.00;101415.22;5326005;26;20017;-75
2024/04/14 00:03:54;;;;;;;8.48;2.30;;;;;;;14.15;100.00;101415.22;5270579;26;20016;-76
2024/04/14 00:06:22;;;;;;;8.35;2.13;;;;;;;14.12;100.00;101410.41;5306941;26;20012;-77
2024/04/14 00:08:51;;;;;;;9.25;2.70;;;;;;;14.13;100.00;101398.53;5322574;26;20016;-73
2024/04/14 00:11:18;;;;;;;8.00;2.40;;;;;;;14.09;100.00;101425.22;5276860;26;20037;-73
2024/04/14 00:13:45;;;;;;;7.65;2.50;;;;;;;14.13;100.00;101422.78;5317423;26;20371;-73
2024/04/14 00:16:12;;;;;;;;;;;;;;;14.13;100.00;101420.09;5331699;26;20834;-72
2024/04/14 00:18:39;;;;;;;8.38;2.35;;;;;;;14.05;100.00;101412.59;5323282;26;20854;-76
2024/04/14 00:21:04;;;;;;;;;;;;;;;14.05;100.00;101417.97;5324805;26;20020;-71
2024/04/14 00:23:30;;;;;;;5.13;1.85;;;;;;;14.01;100.00;101430.38;5322033;26;19926;-77
2024/04/14 00:25:56;;;;;;;;;;;;;;;14.00;100.00;101423.38;5325039;26;20079;-72
2024/04/14 00:28:23;;;;;;;9.25;2.03;;;;;;;13.99;100.00;101427.16;5317404;26;20716;-75
2024/04/14 00:30:48;;;;;;;8.63;2.92;;;;;;;13.92;100.00;101419.38;5319919;26;20515;-74
2024/04/14 00:33:14;;;;;;;;;;;;;;;13.90;100.00;101424.22;5318473;26;20137;-74
2024/04/14 00:35:41;;;;;;;6.53;2.38;;;;;;;13.87;100.00;101428.25;5362138;26;19933;-73
2024/04/14 00:38:07;;;;;;;5.55;1.88;;;;;;;13.87;100.00;101417.50;5330291;26;20001;-75
2024/04/14 00:40:32;;;;;;;;;;;;;;;13.88;100.00;101423.69;5300735;26;19997;-74
2024/04/14 00:42:58;;;;;;;5.50;1.65;;;;;;;13.88;100.00;101410.22;5351818;26;19954;-74
2024/04/14 00:45:26;;;;;;;;;;;;;;;13.83;100.00;101413.75;5335891;26;20012;-73
2024/04/14 00:47:51;;;;;;;6.43;2.50;;;;;;;13.81;100.00;101401.63;5325907;26;19926;-73
2024/04/14 00:50:17;;;;;;;5.68;2.15;;;;;;;13.80;100.00;101395.44;5279063;26;20394;-76
2024/04/14 00:52:43;;;;;;;;;;;;;;;13.76;100.00;101415.13;5323415;26;20017;-77
2024/04/14 00:55:09;;;;;;;8.52;2.15;;;;;;;13.73;100.00;101411.06;5331276;26;19934;-76
2024/04/14 00:57:35;;;;;;;;;;;;;;;13.69;100.00;101420.81;5326333;26;20001;-75
2024/04/14 01:00:01;;;;;;;6.28;2.25;;;;;;;13.65;100.00;101407.06;5329527;26;20291;-74
2024/04/14 01:02:27;;;;;;;;;;;;;;;13.64;100.00;101407.34;5290678;26;20008;-76
2024/04/14 01:04:53;;;;;;;7.97;2.10;;;;;;;13.62;100.00;101425.66;5263611;26;21004;-76
2024/04/14 01:07:19;;;;;;;7.03;2.15;;;;;;;13.62;100.00;101436.44;5319609;26;20040;-74
2024/04/14 01:09:45;;;;;;;5.80;2.58;;;;;;;13.59;100.00;101420.81;5272233;26;20021;-74
2024/04/14 01:12:11;;;;;;;8.13;2.38;;;;;;;13.60;100.00;101427.81;5321399;26;20076;-75
2024/04/14 01:14:37;;;;;;;4.53;2.20;;;;;;;13.58;100.00;101425.38;5268316;26;20457;-73
2024/04/14 01:17:05;;;;;;;6.22;2.03;;;;;;;13.63;100.00;101440.72;5310717;26;20015;-73
2024/04/14 01:19:30;;;;;;;8.75;2.58;;;;;;;13.63;100.00;101443.41;5294439;26;20005;-71
2024/04/14 01:21:57;;;;;;;6.05;2.40;;;;;;;13.62;100.00;101433.75;5273450;26;20002;-72
2024/04/14 01:24:24;;;;;;;4.13;1.88;;;;;;;13.58;100.00;101433.47;5328217;26;20017;-71
2024/04/14 01:26:50;;;;;;;6.88;2.08;;;;;;;13.61;100.00;101443.66;5323338;26;20012;-73
2024/04/14 01:29:16;;;;;;;9.07;2.13;;;;;;;13.55;100.00;101443.97;5320375;26;20363;-73
2024/04/14 01:31:42;;;;;;;4.88;2.20;;;;;;;13.50;100.00;101443.97;5308759;26;20002;-73
2024/04/14 01:34:07;;;;;;;;;;;;;;;13.40;100.00;101450.16;5324103;26;20001;-72
2024/04/14 01:36:33;;;;;;;4.60;2.40;;;;;;;13.34;100.00;101452.09;5321547;26;20744;-74
2024/04/14 01:38:59;;;;;;;;;;;;;;;13.27;100.00;101466.84;5348724;26;20001;-73
2024/04/14 01:41:25;;;;;;;7.00;2.40;;;;;;;13.22;100.00;101454.25;5349407;26;20001;-73
2024/04/14 01:43:51;;;;;;;;;;;;;;;13.24;100.00;101462.84;5319233;26;20021;-73
2024/04/14 01:46:16;;;;;;;8.63;2.10;;;;;;;13.17;100.00;101451.50;5318850;26;20022;-71
2024/04/14 01:48:42;;;;;;;;;;;;;;;13.17;100.00;101454.19;5300075;26;20011;-73
2024/04/14 01:51:08;;;;;;;6.55;2.30;;;;;;;13.15;100.00;101453.66;5352282;26;19927;-73
2024/04/14 01:53:33;;;;;;;;;;;;;;;13.10;100.00;101459.03;5328980;26;20005;-73
2024/04/14 01:56:00;;;;;;;4.97;2.40;;;;;;;13.02;100.00;101454.22;5267946;26;20003;-72
2024/04/14 01:58:27;;;;;;;;;;;;;;;13.01;100.00;101460.66;5325473;26;20021;-73
2024/04/14 02:00:52;;;;;;;9.10;2.97;;;;;;;12.97;100.00;101451.50;5326048;26;19926;-73
2024/04/14 02:03:18;;;;;;;;;;;;;;;12.98;100.00;101458.50;5304491;26;20459;-72
2024/04/14 02:05:44;;;;;;;8.65;2.90;;;;;;;12.89;100.00;101473.56;5321775;26;19933;-73
2024/04/14 02:08:10;;;;;;;10.30;2.50;;;;;;;12.90;100.00;101462.53;5324933;26;20005;-73
2024/04/14 02:10:40;;;;;;;;;;;;;;;12.88;100.00;101474.63;5292633;26;20049;-74
2024/04/14 02:13:06;;;;;;;9.48;2.60;;;;;;;12.82;100.00;101471.94;5303032;26;19983;-72
2024/04/14 02:15:31;;;;;;;;;;;;;;;12.79;100.00;101469.75;5296000;26;20006;-73
2024/04/14 02:17:57;;;;;;;7.90;3.08;;;;;;;12.80;100.00;101479.47;5349238;26;20303;-73
2024/04/14 02:20:23;;;;;;;;;;;;;;;12.75;100.00;101479.44;5344245;26;20048;-75
2024/04/14 02:22:48;;;;;;;6.82;2.78;;;;;;;12.75;100.00;101487.50;5312823;26;20590;-72
2024/04/14 02:25:14;;;;;;;9.20;2.78;;;;;;;12.75;100.00;101498.25;5312352;26;20019;-72
2024/04/14 02:27:40;;;;;;;8.27;2.63;;;;;;;12.71;100.00;101497.16;5328288;26;20082;-72
2024/04/14 02:30:06;;;;;;;12.07;3.13;;;;;;;12.67;100.00;101496.09;5323028;26;19996;-73
2024/04/14 02:32:31;;;;;;;;;;;;;;;12.65;100.00;101492.84;5326773;26;20505;-73
2024/04/14 02:34:57;;;;;;;8.77;2.67;;;;;;;12.61;100.00;101502.53;5317885;26;19938;-72
2024/04/14 02:37:22;;;;;;;10.43;3.08;;;;;;;12.53;100.00;101516.44;5296421;26;21090;-73
2024/04/14 02:39:48;;;;;;;;;;;;;;;12.55;100.00;101519.69;5267720;26;20012;-73
2024/04/14 02:42:35;;;;;;;11.07;2.83;;;;;;;12.45;100.00;101498.16;5294115;26;19935;-73
2024/04/14 02:45:01;;;;;;;8.65;3.65;;;;;;;12.39;100.00;101499.19;5312273;26;20024;-71
2024/04/14 02:47:27;;;;;;;;;;;;;;;12.38;100.00;101524.44;5285161;26;20009;-72
2024/04/14 02:49:52;;;;;;;9.00;2.38;;;;;;;12.33;100.00;101525.25;5293001;26;20759;-72
2024/04/14 02:52:18;;;;;;;9.52;2.50;;;;;;;12.26;100.00;101520.13;5288596;26;20056;-73
2024/04/14 02:54:45;;;;;;;13.30;2.53;;;;;;;12.23;100.00;101523.31;5315734;26;20001;-72
2024/04/14 02:57:11;;;;;;;8.52;2.33;;;;;;;12.18;100.00;101536.72;5314532;26;20014;-72
2024/04/14 02:59:37;;;;;;;8.77;2.00;;;;;;;12.14;100.00;101530.25;5275772;26;19997;-72
2024/04/14 03:02:04;;;;;;;;;;;;;;;12.07;100.00;101534.25;5333064;26;20016;-72
2024/04/14 03:04:30;;;;;;;5.25;1.65;;;;;;;11.94;100.00;101535.50;5355696;26;19933;-73
2024/04/14 03:06:56;;;;;;;;;;;;;;;11.79;100.00;101546.13;5293490;26;20005;-74
2024/04/14 03:09:21;;;;;;;3.38;1.15;;;;;;;11.75;100.00;101532.41;5321238;26;20633;-74
2024/04/14 03:11:47;;;;;;;6.78;1.58;;;;;;;11.67;100.00;101538.25;5322094;26;20287;-72
2024/04/14 03:14:13;;;;;;;7.22;1.65;;;;;;;11.58;100.00;101548.63;5348806;26;20004;-72
2024/04/14 03:16:39;;;;;;;6.18;1.60;;;;;;;11.49;100.00;101552.84;5318686;26;20048;-73
2024/04/14 03:19:05;;;;;;;7.28;2.13;;;;;;;11.42;100.00;101550.38;5322391;26;20075;-72
2024/04/14 03:21:31;;;;;;;;;;;;;;;11.34;100.00;101542.00;5325594;26;20479;-73
2024/04/14 03:23:57;;;;;;;8.63;3.13;;;;;;;11.30;100.00;101554.28;5274066;26;19927;-72
2024/04/14 03:26:25;;;;;;;7.40;2.45;;;;;;;11.25;100.00;101544.34;5314162;26;19997;-73
2024/04/14 03:28:51;;;;;;;13.55;4.40;;;;;;;11.21;100.00;101562.81;5297449;26;20016;-74
2024/04/14 03:31:19;;;;;;;10.32;3.08;;;;;;;11.14;100.00;101558.72;5316146;26;20049;-72
2024/04/14 03:33:45;;;;;;;12.32;2.65;;;;;;;11.09;100.00;101561.34;5314837;26;20483;-74
2024/04/14 03:36:10;;;;;;;10.50;2.30;;;;;;;11.02;100.00;101566.91;5315636;26;20017;-72
2024/04/14 03:38:36;;;;;;;7.10;2.60;;;;;;;10.94;100.00;101570.03;5315084;26;20009;-72
2024/04/14 03:41:02;;;;;;;9.50;2.90;;;;;;;10.89;100.00;101583.38;5281539;26;20846;-73
2024/04/14 03:43:28;;;;;;;7.57;2.00;;;;;;;10.86;100.00;101594.59;5344118;26;20474;-72
2024/04/14 03:45:53;;;;;;;8.38;2.10;;;;;;;10.83;100.00;101585.16;5317568;26;20028;-73
2024/04/14 03:48:19;;;;;;;11.68;3.05;;;;;;;10.84;100.00;101589.50;5328400;26;20138;-72
2024/04/14 03:50:45;;;;;;;6.15;1.73;;;;;;;10.79;100.00;101591.31;5330022;26;20001;-71
2024/04/14 03:53:14;;;;;;;7.22;2.00;;;;;;;10.80;100.00;101611.66;5271196;26;20006;-72
2024/04/14 03:55:41;;;;;;;4.05;1.60;;;;;;;10.79;100.00;101605.50;5313003;26;20028;-73
2024/04/14 03:58:07;;;;;;;7.35;2.30;;;;;;;10.77;100.00;101609.47;5290764;26;20013;-72
2024/04/14 04:00:33;;;;;;;;;;;;;;;10.76;100.00;101610.53;5288297;26;20379;-72
2024/04/14 04:03:00;;;;;;;10.15;2.60;;;;;;;10.72;100.00;101620.97;5313786;26;19933;-73
2024/04/14 04:05:26;;;;;;;9.55;2.05;;;;;;;10.65;100.00;101621.16;5317906;26;19998;-72
2024/04/14 04:07:52;;;;;;;11.60;2.17;;;;;;;10.51;100.00;101619.09;5315284;26;20013;-72
2024/04/14 04:10:17;;;;;;;7.88;1.77;;;;;;;10.44;100.00;101624.63;5298892;26;20013;-71
2024/04/14 04:12:43;;;;;;;9.65;1.90;;;;;;;10.39;100.00;101616.50;5289641;26;20154;-73
2024/04/14 04:15:10;;;;;;;7.10;1.92;;;;;;;10.39;100.00;101621.84;5322093;26;20017;-73
2024/04/14 04:17:35;;;;;;;6.82;1.55;;;;;;;10.39;100.00;101637.94;5269649;26;19998;-74
2024/04/14 04:20:02;;;;;;;;;;;;;;;10.31;100.00;101624.97;5319282;26;20019;-75
2024/04/14 04:22:29;;;;;;;10.02;1.90;;;;;;;10.26;100.00;101625.69;5318200;26;20329;-73
2024/04/14 04:24:55;;;;;;;5.53;1.52;;;;;;;10.20;100.00;101639.22;5269790;26;20001;-73
2024/04/14 04:27:21;;;;;;;7.50;1.45;;;;;;;10.12;100.00;101640.44;5297495;26;20037;-75
2024/04/14 04:29:47;;;;;;;8.50;1.77;;;;;;;10.07;100.00;101641.16;5314776;26;20020;-73
2024/04/14 04:32:16;;;;;;;15.57;1.52;;;;;;;9.98;100.00;101645.31;5287778;26;20009;-73
2024/04/14 04:34:43;;;;;;;13.60;1.42;;;;;;;9.88;100.00;101653.16;5327385;26;20078;-75
2024/04/14 04:37:09;;;;;;;11.80;1.95;;;;;;;9.87;100.00;101662.25;5330493;26;20473;-74
2024/04/14 04:39:34;;;;;;;9.10;1.45;;;;;;;9.83;100.00;101658.44;5315378;26;20012;-74
2024/04/14 04:42:00;;;;;;;;;;;;;;;9.73;100.00;101661.75;5290159;26;20041;-73
2024/04/14 04:44:27;;;;;;;9.07;1.55;;;;;;;9.75;100.00;101648.13;5294086;26;19926;-72
2024/04/14 04:46:52;;;;;;;7.85;1.30;;;;;;;9.69;100.00;101662.47;5319115;26;20506;-73
2024/04/14 04:49:18;;;;;;;9.95;1.60;;;;;;;9.71;100.00;101661.19;5303935;26;20020;-72
2024/04/14 04:51:44;;;;;;;6.07;1.88;;;;;;;9.64;100.00;101663.19;5321260;26;20013;-73
2024/04/14 04:54:10;;;;;;;9.23;1.95;;;;;;;9.61;100.00;101668.19;5346022;26;20343;-72
2024/04/14 04:56:36;;;;;;;7.95;1.33;;;;;;;9.58;100.00;101681.00;5326354;26;20413;-74
2024/04/14 04:59:02;;;;;;;10.85;2.13;;;;;;;9.56;100.00;101685.78;5291668;26;20024;-73
2024/04/14 05:01:28;;;;;;;6.88;1.30;;;;;;;9.56;100.00;101687.66;5298481;26;20133;-73
2024/04/14 05:03:53;;;;;;;9.25;1.23;;;;;;;9.53;100.00;101691.59;5299885;26;20001;-74
2024/04/14 05:06:19;;;;;;;10.43;1.73;;;;;;;9.53;100.00;101698.81;5329583;26;20016;-73
2024/04/14 05:08:46;;;;;;;;;;;;;;;9.57;100.00;101692.75;5271098;26;20025;-73
2024/04/14 05:11:12;;;;;;;6.75;1.40;;;;;;;9.60;100.00;101696.00;5282739;26;19932;-75
2024/04/14 05:13:39;;;;;;;7.18;1.50;;;;;;;9.65;100.00;101712.16;5298985;26;19997;-74
2024/04/14 05:16:05;;;;;;;7.25;1.63;;;;;;;9.70;100.00;101710.38;5324303;26;20510;-73
2024/04/14 05:18:30;;;;;;;7.75;1.63;;;;;;;9.75;100.00;101713.13;5328946;26;20054;-73
2024/04/14 05:20:57;;;;;;;8.75;1.92;;;;;;;9.82;100.00;101712.97;5313388;26;20556;-73
2024/04/14 05:23:23;;;;;;;8.43;1.33;;;;;;;9.85;100.00;101723.22;5327882;26;20496;-73
2024/04/14 05:25:49;;;;;;;9.48;1.30;;;;;;;9.92;100.00;101717.72;5298342;26;20005;-74
2024/04/14 05:28:15;;;;;;;5.32;1.40;;;;;;;10.00;100.00;101703.94;5328033;26;20659;-73
2024/04/14 05:30:41;;;;;;;6.85;1.77;;;;;;;10.08;100.00;101712.38;5298486;26;20013;-75
2024/04/14 05:33:07;;;;;;;8.23;1.65;;;;;;;10.14;100.00;101707.91;5323252;26;20013;-74
2024/04/14 05:35:33;;;;;;;9.43;1.50;;;;;;;10.18;100.00;101716.28;5330947;26;20012;-72
2024/04/14 05:37:59;;;;;;;9.32;2.08;;;;;;;10.22;100.00;101712.84;5324102;26;20021;-73
2024/04/14 05:40:25;;;;;;;10.75;2.08;;;;;;;10.24;100.00;101724.19;5286553;26;20020;-73
2024/04/14 05:42:55;;;;;;;10.32;1.95;;;;;;;10.21;100.00;101721.13;5296013;26;20001;-73
2024/04/14 05:45:23;;;;;;;6.60;1.40;;;;;;;10.25;100.00;101728.47;5271345;26;20020;-76
2024/04/14 05:47:49;;;;;;;12.95;2.00;;;;;;;10.26;100.00;101731.97;5320129;26;20001;-74
2024/04/14 05:50:15;;;;;;;9.48;2.05;;;;;;;10.28;100.00;101730.66;5309662;26;20005;-75
2024/04/14 05:52:40;;;;;;;12.48;1.63;;;;;;;10.27;100.00;101717.53;5326065;26;19997;-73
2024/04/14 05:55:06;;;;;;;8.88;1.50;;;;;;;10.25;100.00;101733.03;5325884;26;19997;-73
2024/04/14 05:57:33;;;;;;;8.82;1.67;;;;;;;10.27;100.00;101746.97;5330079;26;20019;-74
2024/04/14 05:59:59;;;;;;;11.75;1.55;;;;;;;10.32;100.00;101747.06;5327444;26;20077;-73
2024/04/14 06:02:26;;;;;;;8.70;1.50;;;;;;;10.26;100.00;101742.69;5276781;26;20012;-73
2024/04/14 06:04:52;;;;;;;8.68;1.70;;;;;;;10.20;100.00;101760.47;5289885;26;20020;-73
2024/04/14 06:07:18;;;;;;;8.07;1.60;;;;;;;10.19;100.00;101760.72;5298759;26;20912;-74
2024/04/14 06:09:44;;;;;;;11.95;1.90;;;;;;;10.27;100.00;101766.53;5316692;26;20019;-74
2024/04/14 06:12:09;;;;;;;7.97;1.70;;;;;;;10.29;100.00;101779.66;5298400;26;20706;-74
2024/04/14 06:14:35;;;;;;;8.00;1.50;;;;;;;10.18;100.00;101759.91;5322962;26;20001;-75
2024/04/14 06:17:01;;;;;;;6.90;1.65;;;;;;;10.23;100.00;101767.25;5284099;26;20017;-75
2024/04/14 06:19:27;;;;;;;8.65;1.58;;;;;;;10.25;100.00;101757.94;5320214;26;20025;-72
2024/04/14 06:21:53;;;;;;;11.13;1.75;;;;;;;10.21;100.00;101763.97;5322197;26;20002;-72
2024/04/14 06:24:20;;;;;;;10.35;1.60;;;;;;;10.25;100.00;101775.88;5321698;26;21389;-73
2024/04/14 06:26:45;;;;;;;8.85;1.33;;;;;;;10.25;100.00;101770.50;5312896;26;20626;-74
2024/04/14 06:29:11;;;;;;;9.45;1.65;;;;;;;10.31;100.00;101772.22;5273171;26;20008;-72
2024/04/14 06:31:37;;;;;;;12.77;1.80;;;;;;;10.34;100.00;101775.22;5332275;26;20005;-73
2024/04/14 06:34:02;;;;;;;8.93;1.75;;;;;;;10.42;100.00;101776.66;5266416;26;20057;-72
2024/04/14 06:36:28;;;;;;;8.25;1.50;;;;;;;10.50;100.00;101768.25;5325307;26;20002;-73
2024/04/14 06:38:54;;;;;;;8.00;1.73;;;;;;;10.56;100.00;101782.50;5319248;26;20024;-72
2024/04/14 06:41:20;;;;;;;8.52;2.00;;;;;;;10.57;100.00;101784.16;5289908;26;21641;-72
2024/04/14 06:43:45;;;;;;;14.70;2.05;;;;;;;10.67;100.00;101778.94;5323679;26;20006;-73
2024/04/14 06:46:11;;;;;;;10.07;2.10;;;;;;;10.76;100.00;101782.00;5323488;26;20215;-72
2024/04/14 06:48:37;;;;;;;9.57;1.60;;;;;;;10.82;100.00;101786.41;5315137;26;20001;-72
2024/04/14 06:51:02;;;;;;;12.43;2.42;;;;;;;10.92;100.00;101789.25;5295015;26;20016;-73
2024/04/14 06:53:28;;;;;;;11.77;1.88;;;;;;;10.96;100.00;101785.00;5350006;26;20794;-73
2024/04/14 06:55:58;;;;;;;10.77;1.58;;;;;;;11.03;100.00;101792.84;5322404;26;19998;-72
2024/04/14 06:58:24;;;;;;;13.32;1.70;;;;;;;11.09;100.00;101797.25;5316823;26;20005;-73
2024/04/14 07:00:49;;;;;;;8.20;1.33;;;;;;;11.05;100.00;101786.22;5299168;26;20012;-74
2024/04/14 07:03:15;;;;;;;9.40;1.70;;;;;;;11.04;100.00;101798.00;5354096;26;20552;-73
2024/04/14 07:05:41;;;;;;;11.63;1.95;;;;;;;11.03;100.00;101788.31;5299754;26;20589;-73
2024/04/14 07:08:07;;;;;;;12.13;1.95;;;;;;;11.11;100.00;101795.94;5305817;26;20425;-73
2024/04/14 07:10:35;;;;;;;;;;;;;;;11.04;100.00;101800.69;5325141;26;20005;-73
2024/04/14 07:13:01;;;;;;;7.82;1.17;;;;;;;11.13;100.00;101814.47;5334689;26;19933;-72
2024/04/14 07:15:27;;;;;;;9.85;1.70;;;;;;;11.27;100.00;101810.38;5315325;26;19997;-73
2024/04/14 07:17:52;;;;;;;9.25;1.60;;;;;;;11.37;100.00;101825.75;5328351;26;20020;-72
2024/04/14 07:20:20;;;;;;;10.13;2.20;;;;;;;11.32;100.00;101826.53;5320516;26;20001;-74
2024/04/14 07:22:46;;;;;;;11.25;1.92;;;;;;;11.31;100.00;101816.03;5318951;26;20036;-73
2024/04/14 07:25:12;;;;;;;14.63;2.03;;;;;;;11.27;100.00;101817.59;5303594;26;20001;-73
2024/04/14 07:27:38;;;;;;;8.73;1.70;;;;;;;11.31;100.00;101818.72;5302663;26;20080;-72
2024/04/14 07:30:04;;;;;;;9.50;1.60;;;;;;;11.40;100.00;101819.91;5299795;26;20040;-73
2024/04/14 07:32:30;;;;;;;10.18;1.48;;;;;;;11.52;100.00;101809.88;5316352;26;20004;-75
2024/04/14 07:34:56;;;;;;;12.20;2.08;;;;;;;11.55;100.00;101817.41;5325836;26;20742;-73
2024/04/14 07:37:22;;;;;;;5.70;1.70;;;;;;;11.45;100.00;101811.94;5326276;26;20012;-73
2024/04/14 07:39:47;;;;;;;10.48;1.70;;;;;;;11.38;100.00;101816.66;5325035;26;20003;-72
2024/04/14 07:42:13;;;;;;;10.25;1.77;;;;;;;11.42;100.00;101823.97;5357396;26;20019;-74
2024/04/14 07:44:39;;;;;;;8.02;1.33;;;;;;;11.44;100.00;101823.72;5330463;26;20005;-73
2024/04/14 07:47:05;;;;;;;7.63;1.58;;;;;;;11.46;100.00;101825.09;5325396;26;20001;-72
2024/04/14 07:49:31;;;;;;;14.50;1.73;;;;;;;11.50;100.00;101836.13;5332233;26;20011;-73
2024/04/14 07:51:56;;;;;;;8.23;1.30;;;;;;;11.46;100.00;101835.03;5303008;26;19997;-74
2024/04/14 07:54:22;;;;;;;8.32;1.70;;;;;;;11.42;100.00;101844.63;5311668;26;20005;-73
2024/04/14 07:56:48;;;;;;;;;;;;;;;11.38;100.00;101832.75;5270699;26;20016;-74
2024/04/14 07:59:13;;;;;;;8.82;1.65;;;;;;;11.37;100.00;101841.84;5305066;26;19958;-74
2024/04/14 08:01:39;;;;;;;6.95;1.50;;;;;;;11.52;100.00;101831.34;5327501;26;20079;-72
2024/04/14 08:04:05;;;;;;;10.60;1.52;;;;;;;11.65;100.00;101836.34;5329175;26;20370;-74
2024/04/14 08:06:31;;;;;;;7.13;1.40;;;;;;;11.73;100.00;101846.63;5264431;26;20001;-73
2024/04/14 08:08:57;;;;;;;10.15;1.60;;;;;;;11.84;100.00;101844.09;5276344;26;20850;-73
2024/04/14 08:11:25;;;;;;;8.45;2.15;;;;;;;11.89;100.00;101846.84;5288581;26;20005;-75
2024/04/14 08:13:50;;;;;;;10.98;2.42;;;;;;;11.94;100.00;101853.06;5314626;26;19997;-76
2024/04/14 08:16:16;;;;;;;12.18;2.50;;;;;;;12.01;100.00;101842.16;5344556;26;20008;-73
2024/04/14 08:18:44;;;;;;;14.43;2.00;;;;;;;12.04;100.00;101857.75;5318067;26;20017;-73
2024/04/14 08:21:10;;;;;;;7.10;2.35;;;;;;;12.15;100.00;101848.72;5322809;26;20083;-72
2024/04/14 08:23:35;;;;;;;8.68;1.85;;;;;;;12.26;100.00;101850.47;5295502;26;20049;-72
2024/04/14 08:26:01;;;;;;;12.35;1.52;;;;;;;12.25;100.00;101848.81;5289950;26;20009;-76
2024/04/14 08:28:27;;;;;;;11.52;1.70;;;;;;;12.44;100.00;101861.91;5290711;26;20053;-73
2024/04/14 08:30:52;;;;;;;;;;;;;;;12.58;100.00;101847.78;5326736;26;20012;-74
2024/04/14 08:33:19;;;;;;;6.43;1.38;;;;;;;12.69;100.00;101854.06;5323621;26;19926;-76
2024/04/14 08:35:45;;;;;;;9.98;1.70;;;;;;;12.87;100.00;101857.41;5331565;26;20884;-74
2024/04/14 08:38:12;;;;;;;10.55;1.77;;;;;;;12.87;100.00;101854.72;5328299;26;20005;-73
2024/04/14 08:40:38;;;;;;;8.50;1.55;;;;;;;12.78;100.00;101865.97;5328672;26;20005;-73
2024/04/14 08:43:03;;;;;;;9.85;1.77;;;;;;;12.79;100.00;101866.78;5320311;26;20383;-74
2024/04/14 08:45:32;;;;;;;7.28;1.77;;;;;;;12.79;100.00;101864.88;5325033;26;20007;-74
2024/04/14 08:47:59;;;;;;;5.82;1.48;;;;;;;12.54;100.00;101875.44;5331098;26;20023;-73
2024/04/14 08:50:26;;;;;;;6.30;1.55;;;;;;;12.45;100.00;101868.91;5324708;26;20052;-73
2024/04/14 08:52:52;;;;;;;8.80;2.50;;;;;;;12.41;100.00;101886.59;5263555;26;20009;-73
2024/04/14 08:55:17;;;;;;;7.85;1.58;;;;;;;12.37;98.33;101880.09;5265871;26;20013;-73
2024/04/14 08:57:43;;;;;;;;;;;;;;;12.52;100.00;101881.06;5303488;26;20005;-73
2024/04/14 09:00:15;;;;;;;6.60;1.02;;;;;;;12.73;100.00;101884.72;5293334;26;19988;-74
2024/04/14 09:02:42;;;;;;;6.75;1.40;;;;;;;12.78;100.00;101894.72;5313934;26;20013;-78
2024/04/14 09:05:09;;;;;;;5.75;0.93;;;;;;;12.77;100.00;101872.41;5327016;26;20001;-75
2024/04/14 09:07:36;;;;;;;5.30;1.60;;;;;;;12.69;100.00;101890.88;5335287;26;20059;-72
2024/04/14 09:10:02;;;;;;;6.70;1.20;;;;;;;12.79;100.00;101882.91;5276924;26;20012;-72
2024/04/14 09:12:29;;;;;;;10.95;1.80;;;;;;;12.95;100.00;101881.16;5325218;26;20016;-74
2024/04/14 09:14:55;;;;;;;8.98;1.20;;;;;;;13.08;100.00;101883.41;5320763;26;20021;-74
2024/04/14 09:17:20;;;;;;;;;;;;;;;13.17;100.00;101886.41;5299072;26;20005;-74
2024/04/14 09:19:46;;;;;;;5.22;0.90;;;;;;;13.06;100.00;101878.25;5292990;26;19954;-78
2024/04/14 09:22:13;;;;;;;;;;;;;;;13.01;100.00;101882.81;5300995;26;20445;-72
2024/04/14 09:24:40;;;;;;;8.80;1.67;;;;;;;13.14;100.00;101874.31;5264555;26;19934;-72
2024/04/14 09:27:07;;;;;;;8.13;1.67;;;;;;;13.24;100.00;101881.66;5320638;26;20016;-75
2024/04/14 09:29:34;;;;;;;8.75;1.67;;;;;;;13.38;98.20;101891.69;5330880;26;20141;-75
2024/04/14 09:31:59;;;;;;;6.97;1.20;;;;;;;13.55;96.64;101890.72;5301668;26;19997;-73
2024/04/14 09:34:26;;;;;;;;;;;;;;;13.24;83.36;101898.59;5287476;26;20076;-72
2024/04/14 09:36:52;;;;;;;8.40;1.50;;;;;;;13.08;89.28;101886.91;5329635;26;19932;-73
2024/04/14 09:39:19;;;;;;;7.10;1.75;;;;;;;12.84;85.28;101894.50;5295383;26;19998;-73
2024/04/14 09:41:45;;;;;;;5.60;1.10;;;;;;;12.89;93.61;101890.25;5295941;26;20017;-74
2024/04/14 09:44:11;;;;;;;5.03;1.40;;;;;;;12.94;93.86;101890.28;5323062;26;20087;-75
2024/04/14 09:46:38;;;;;;;5.25;1.10;;;;;;;13.05;100.00;101891.97;5305140;26;20016;-73
2024/04/14 09:49:05;;;;;;;;;;;;;;;13.02;91.10;101900.56;5296627;26;20568;-73
2024/04/14 09:51:32;;;;;;;7.18;1.40;;;;;;;13.18;98.68;101894.22;5302544;26;19933;-74
2024/04/14 09:53:58;;;;;;;8.13;1.10;;;;;;;13.44;92.70;101903.31;5327958;26;20107;-74
2024/04/14 09:56:24;;;;;;;5.38;1.40;;;;;;;13.56;88.72;101905.78;5289808;26;20481;-74
2024/04/14 09:58:54;;;;;;;5.38;1.40;;;;;;;13.74;86.39;101891.88;5299137;26;20001;-72
2024/04/14 10:01:30;;;;;;;5.00;1.55;;;;;;;13.76;83.93;101888.94;5298798;26;20030;-74
2024/04/14 10:04:00;;;;;;;5.93;1.02;;;;;;;13.63;80.21;101890.22;5298392;26;20013;-74
2024/04/14 10:06:27;;;;;;;6.00;1.40;;;;;;;13.68;79.61;101897.50;5276598;26;20197;-75
2024/04/14 10:08:53;;;;;;;6.35;1.23;;;;;;;13.72;83.16;101898.59;5295717;26;20009;-73
2024/04/14 10:11:19;;;;;;;7.93;2.10;;;;;;;13.78;82.98;101900.25;5285021;26;20380;-72
2024/04/14 10:13:51;;;;;;;4.68;1.02;;;;;;;13.94;84.87;101904.59;5330095;26;20017;-72
2024/04/14 10:16:17;;;;;;;;;;;;;;;13.68;74.95;101892.91;5327944;26;20005;-74
2024/04/14 10:18:44;;;;;;;4.90;1.25;;;;;;;13.68;86.13;101898.28;5265161;26;19942;-74
2024/04/14 10:21:17;;;;;;;7.05;1.25;;;;;;;13.53;83.34;101901.72;5320788;26;20012;-74
2024/04/14 10:23:46;;;;;;;5.15;1.20;;;;;;;13.49;85.88;101903.34;5295851;26;20084;-75
2024/04/14 10:26:17;;;;;;;4.30;0.98;;;;;;;13.63;79.73;101901.78;5322039;26;20525;-73
2024/04/14 10:28:53;;;;;;;5.55;1.15;;;;;;;13.56;80.12;101912.00;5332451;26;20079;-78
2024/04/14 10:31:35;;;;;;;8.50;1.75;;;;;;;13.51;82.63;101909.25;5269516;26;20043;-76
2024/04/14 10:34:10;;;;;;;4.28;1.23;;;;;;;13.44;86.91;101903.31;5348109;26;20407;-74
2024/04/14 10:36:40;;;;;;;5.25;1.10;;;;;;;13.20;81.52;101893.97;5322664;26;20479;-72
2024/04/14 10:39:10;;;;;;;6.00;0.98;;;;;;;13.04;78.51;101911.88;5321374;26;20016;-73
2024/04/14 10:41:35;;;;;;;6.22;1.08;;;;;;;13.04;87.36;101907.31;5327741;26;21204;-73
2024/04/14 10:44:00;;;;;;;;;;;;;;;13.10;87.04;101916.22;5317946;26;20005;-73
2024/04/14 10:46:26;;;;;;;7.38;1.35;;;;;;;13.09;85.67;101898.47;5313031;26;20680;-74
2024/04/14 10:48:52;;;;;;;;;;;;;;;13.34;80.36;101922.91;5313847;26;20021;-73
2024/04/14 10:51:18;;;;;;;5.32;1.23;;;;;;;13.57;79.14;101912.78;5293584;26;19926;-73
2024/04/14 10:53:44;;;;;;;;;;;;;;;13.53;80.75;101907.09;5282900;26;20002;-73
2024/04/14 10:56:09;;;;;;;6.13;1.15;;;;;;;13.40;77.68;101904.88;5315130;26;19926;-73
2024/04/14 10:58:36;;;;;;;;;;;;;;;13.27;78.75;101914.22;5288589;26;20033;-73
2024/04/14 11:01:03;;;;;;;7.68;1.48;;;;;;;13.30;80.90;101918.28;5320233;26;20685;-73
2024/04/14 11:03:30;;;;;;;4.80;1.13;;;;;;;13.52;77.58;101907.38;5320805;26;19997;-75
2024/04/14 11:05:58;;;;;;;4.18;0.90;;;;;;;13.79;77.67;101913.44;5325837;26;20490;-74
2024/04/14 11:08:25;;;;;;;5.97;1.60;;;;;;;14.06;76.80;101907.09;5301728;26;20034;-77
2024/04/14 11:10:52;;;;;;;6.15;1.17;;;;;;;14.04;71.21;101911.94;5327107;26;20474;-75
2024/04/14 11:13:21;;;;;;;6.68;1.33;;;;;;;14.15;76.96;101900.09;5309842;26;20079;-73
2024/04/14 11:15:47;;;;;;;5.50;1.05;;;;;;;14.11;71.23;101907.91;5300364;26;20012;-74
2024/04/14 11:18:13;;;;;;;;;;;;;;;14.23;75.59;101904.19;5354398;26;20350;-73
2024/04/14 11:20:51;;;;;;;5.63;1.10;;;;;;;14.52;72.82;101902.66;5317890;26;19941;-73
2024/04/14 11:23:17;;;;;;;6.95;1.15;;;;;;;14.51;69.88;101897.53;5290481;26;20807;-74